createdAt,value
2023-08-11T00:01:02.889Z,22.80
2023-08-11T00:04:05.274Z,22.79
2023-08-11T00:07:07.492Z,22.79
2023-08-11T00:10:10.461Z,22.80
2023-08-11T00:13:14.276Z,22.81
2023-08-11T00:16:16.536Z,22.80
2023-08-11T00:19:18.678Z,22.77
2023-08-11T00:22:20.790Z,22.76
2023-08-11T00:25:23.404Z,22.71
2023-08-11T00:28:28.161Z,22.70
2023-08-11T00:31:30.692Z,22.70
2023-08-11T00:34:33.194Z,22.69
2023-08-11T00:37:35.583Z,22.68
2023-08-11T00:40:37.931Z,22.67
2023-08-11T00:43:40.205Z,22.66
2023-08-11T00:46:44.051Z,22.66
2023-08-11T00:49:46.174Z,22.67
2023-08-11T00:52:49.065Z,22.66
2023-08-11T00:55:51.561Z,22.66
2023-08-11T00:58:54.397Z,22.65
2023-08-11T01:01:56.608Z,22.63
2023-08-11T01:04:58.703Z,22.64
2023-08-11T01:08:22.985Z,22.63
2023-08-11T01:11:50.243Z,22.62
2023-08-11T01:15:19.296Z,22.62
2023-08-11T01:18:23.517Z,22.58
2023-08-11T01:21:26.876Z,22.58
2023-08-11T01:24:30.902Z,22.57
2023-08-11T01:27:37.542Z,22.57
2023-08-11T01:30:39.702Z,22.56
2023-08-11T01:33:41.793Z,22.55
2023-08-11T01:36:44.316Z,22.55
2023-08-11T01:39:46.417Z,22.54
2023-08-11T01:42:54.956Z,22.52
2023-08-11T01:45:57.920Z,22.51
2023-08-11T01:49:00.956Z,22.52
2023-08-11T01:52:04.451Z,22.50
2023-08-11T01:55:07.643Z,22.49
2023-08-11T01:58:10.796Z,22.46
2023-08-11T02:01:14.320Z,22.46
2023-08-11T02:04:16.457Z,22.47
2023-08-11T02:07:18.542Z,22.47
2023-08-11T02:10:20.614Z,22.47
2023-08-11T02:13:22.705Z,22.44
2023-08-11T02:16:25.023Z,22.47
2023-08-11T02:19:27.123Z,22.44
2023-08-11T02:22:29.286Z,22.43
2023-08-11T02:25:31.498Z,22.46
2023-08-11T02:28:34.174Z,22.42
2023-08-11T02:31:36.259Z,22.43
2023-08-11T02:34:38.491Z,22.40
2023-08-11T02:37:41.865Z,22.41
2023-08-11T02:40:44.091Z,22.41
2023-08-11T02:43:46.615Z,22.38
2023-08-11T02:46:48.885Z,22.37
2023-08-11T02:49:50.959Z,22.36
2023-08-11T02:52:53.068Z,22.34
2023-08-11T02:55:55.443Z,22.35
2023-08-11T02:58:58.357Z,22.32
2023-08-11T03:02:00.485Z,22.33
2023-08-11T03:05:04.733Z,22.33
2023-08-11T03:08:06.839Z,22.31
2023-08-11T03:11:09.568Z,22.31
2023-08-11T03:14:12.265Z,22.29
2023-08-11T03:17:14.721Z,22.28
2023-08-11T03:20:17.166Z,22.27
2023-08-11T03:23:19.485Z,22.26
2023-08-11T03:26:21.660Z,22.26
2023-08-11T03:29:23.743Z,22.25
2023-08-11T03:32:25.850Z,22.26
2023-08-11T03:35:27.989Z,22.25
2023-08-11T03:38:30.085Z,22.22
2023-08-11T03:41:32.227Z,22.21
2023-08-11T03:44:34.967Z,22.21
2023-08-11T03:47:37.116Z,22.19
2023-08-11T03:50:39.368Z,22.20
2023-08-11T03:53:41.502Z,22.19
2023-08-11T03:56:44.786Z,22.19
2023-08-11T03:59:46.877Z,22.18
2023-08-11T04:02:49.574Z,22.19
2023-08-11T04:05:51.899Z,22.18
2023-08-11T04:08:53.985Z,22.18
2023-08-11T04:11:56.056Z,22.18
2023-08-11T04:14:58.427Z,22.16
2023-08-11T04:18:00.812Z,22.14
2023-08-11T04:21:02.944Z,22.14
2023-08-11T04:24:05.343Z,22.13
2023-08-11T04:27:07.478Z,22.12
2023-08-11T04:30:11.440Z,22.12
2023-08-11T04:33:14.126Z,22.11
2023-08-11T04:36:16.265Z,22.11
2023-08-11T04:39:18.417Z,22.09
2023-08-11T04:42:21.245Z,22.06
2023-08-11T04:45:23.645Z,22.07
2023-08-11T04:48:25.755Z,22.06
2023-08-11T04:51:27.831Z,22.05
2023-08-11T04:54:29.938Z,22.05
2023-08-11T04:57:32.115Z,22.04
2023-08-11T05:00:35.251Z,22.04
2023-08-11T05:03:38.260Z,22.06
2023-08-11T05:06:40.404Z,22.06
2023-08-11T05:09:42.518Z,22.07
2023-08-11T05:12:45.591Z,22.12
2023-08-11T05:15:47.648Z,22.13
2023-08-11T05:18:50.273Z,22.14
2023-08-11T05:21:52.435Z,22.11
2023-08-11T05:24:54.618Z,21.79
2023-08-11T05:27:56.788Z,21.88
2023-08-11T05:30:59.015Z,22.02
2023-08-11T05:34:01.295Z,22.07
2023-08-11T05:37:04.651Z,22.10
2023-08-11T05:40:10.893Z,22.11
2023-08-11T05:43:12.995Z,22.12
2023-08-11T05:46:15.191Z,22.11
2023-08-11T05:49:17.343Z,22.18
2023-08-11T05:52:19.491Z,22.22
2023-08-11T05:55:21.608Z,22.26
2023-08-11T05:58:23.957Z,22.24
2023-08-11T06:01:26.168Z,22.25
2023-08-11T06:04:28.284Z,22.28
2023-08-11T06:07:30.818Z,22.32
2023-08-11T06:10:33.248Z,22.32
2023-08-11T06:13:35.527Z,22.35
2023-08-11T06:16:37.741Z,22.37
2023-08-11T06:19:39.881Z,22.39
2023-08-11T06:22:42.154Z,22.43
2023-08-11T06:25:44.284Z,22.46
2023-08-11T06:28:46.385Z,22.46
2023-08-11T06:31:48.875Z,22.46
2023-08-11T06:34:51.038Z,22.46
2023-08-11T06:37:53.191Z,22.47
2023-08-11T06:40:55.389Z,22.48
2023-08-11T06:43:57.705Z,22.49
2023-08-11T06:46:59.778Z,22.53
2023-08-11T06:50:03.264Z,22.53
2023-08-11T06:53:05.385Z,22.54
2023-08-11T06:56:07.506Z,22.57
2023-08-11T06:59:09.627Z,22.50
2023-08-11T07:02:11.766Z,22.41
2023-08-11T07:05:14.090Z,22.57
2023-08-11T07:08:16.915Z,22.61
2023-08-11T07:11:19.204Z,22.63
2023-08-11T07:14:21.340Z,22.69
2023-08-11T07:17:24.308Z,22.78
2023-08-11T07:20:26.563Z,22.86
2023-08-11T07:23:28.658Z,22.95
2023-08-11T07:26:30.809Z,23.02
2023-08-11T07:29:32.974Z,23.05
2023-08-11T07:32:35.077Z,23.06
2023-08-11T07:35:37.224Z,23.10
2023-08-11T07:38:39.324Z,23.15
2023-08-11T07:41:41.415Z,23.14
2023-08-11T07:44:44.667Z,23.17
2023-08-11T07:47:47.265Z,23.22
2023-08-11T07:50:49.645Z,23.26
2023-08-11T07:53:52.511Z,23.28
2023-08-11T07:56:54.765Z,23.35
2023-08-11T07:59:58.380Z,23.40
2023-08-11T08:03:00.575Z,23.42
2023-08-11T08:06:06.254Z,23.43
2023-08-11T08:09:12.684Z,23.47
2023-08-11T08:12:17.100Z,23.46
2023-08-11T08:15:19.688Z,23.45
2023-08-11T08:18:21.774Z,23.49
2023-08-11T08:21:23.849Z,23.53
2023-08-11T08:24:25.965Z,23.55
2023-08-11T08:27:28.377Z,23.56
2023-08-11T08:30:30.829Z,23.59
2023-08-11T08:33:33.109Z,23.62
2023-08-11T08:36:35.378Z,23.66
2023-08-11T08:39:37.553Z,23.70
2023-08-11T08:42:42.144Z,23.76
2023-08-11T08:45:45.852Z,23.79
2023-08-11T08:49:24.019Z,23.87
2023-08-11T08:52:26.177Z,23.90
2023-08-11T08:55:28.381Z,23.95
2023-08-11T08:58:30.560Z,23.97
2023-08-11T09:01:33.503Z,24.02
2023-08-11T09:04:36.073Z,24.04
2023-08-11T09:07:38.466Z,24.03
2023-08-11T09:10:40.616Z,24.05
2023-08-11T09:13:45.980Z,24.10
2023-08-11T09:16:50.017Z,24.11
2023-08-11T09:19:54.086Z,24.10
2023-08-11T09:22:56.518Z,24.12
2023-08-11T09:25:58.731Z,24.10
2023-08-11T09:29:00.863Z,24.09
2023-08-11T09:32:05.501Z,24.14
2023-08-11T09:35:11.098Z,24.19
2023-08-11T09:38:13.544Z,24.23
2023-08-11T09:41:16.507Z,24.14
2023-08-11T09:44:19.872Z,24.09
2023-08-11T09:47:23.045Z,24.12
2023-08-11T09:50:28.465Z,24.16
2023-08-11T09:53:31.134Z,24.14
2023-08-11T09:56:38.471Z,24.05
2023-08-11T09:59:43.545Z,24.17
2023-08-11T10:02:51.254Z,24.12
2023-08-11T10:05:56.862Z,24.05
2023-08-11T10:09:03.076Z,24.12
2023-08-11T10:12:07.558Z,24.04
2023-08-11T10:15:12.868Z,23.97
2023-08-11T10:18:16.795Z,23.99
2023-08-11T10:21:19.834Z,24.03
2023-08-11T10:24:22.400Z,24.04
2023-08-11T10:27:24.911Z,24.09
2023-08-11T10:30:27.210Z,24.18
2023-08-11T10:33:32.667Z,24.19
2023-08-11T10:36:34.971Z,24.12
2023-08-11T10:39:38.695Z,24.09
2023-08-11T10:42:42.399Z,23.98
2023-08-11T10:45:46.587Z,23.97
2023-08-11T10:48:48.980Z,23.99
2023-08-11T10:51:55.216Z,23.98
2023-08-11T10:55:02.146Z,24.03
2023-08-11T10:58:11.589Z,24.05
2023-08-11T11:01:13.714Z,24.01
2023-08-11T11:04:17.900Z,24.06
2023-08-11T11:07:25.986Z,24.01
2023-08-11T11:10:43.511Z,23.98
2023-08-11T11:13:51.391Z,24.15
2023-08-11T11:16:56.069Z,24.08
2023-08-11T11:20:01.016Z,24.06
2023-08-11T11:23:05.878Z,24.09
2023-08-11T11:26:07.987Z,24.03
2023-08-11T11:29:10.071Z,24.12
2023-08-11T11:32:12.971Z,24.10
2023-08-11T11:35:15.366Z,24.03
2023-08-11T11:38:18.420Z,24.01
2023-08-11T11:41:21.360Z,24.04
2023-08-11T11:44:23.493Z,24.12
2023-08-11T11:47:26.086Z,24.27
2023-08-11T11:50:30.392Z,24.25
2023-08-11T11:53:32.648Z,24.19
2023-08-11T11:56:35.417Z,24.20
2023-08-11T11:59:40.942Z,24.23
2023-08-11T12:02:45.030Z,24.27
2023-08-11T12:05:47.262Z,24.32
2023-08-11T12:08:52.507Z,24.42
2023-08-11T12:11:57.746Z,24.55
2023-08-11T12:15:04.783Z,24.49
2023-08-11T12:18:07.480Z,24.49
2023-08-11T12:21:12.807Z,24.51
2023-08-11T12:24:17.747Z,24.56
2023-08-11T12:27:20.356Z,24.60
2023-08-11T12:30:22.485Z,24.50
2023-08-11T12:33:24.825Z,24.57
2023-08-11T12:36:27.027Z,24.51
2023-08-11T12:39:30.376Z,24.62
2023-08-11T12:42:32.531Z,24.65
2023-08-11T12:45:34.665Z,24.59
2023-08-11T12:48:36.763Z,24.63
2023-08-11T12:51:38.859Z,24.69
2023-08-11T12:54:41.033Z,24.73
2023-08-11T12:57:43.109Z,24.74
2023-08-11T13:00:45.300Z,24.86
2023-08-11T13:03:47.705Z,24.94
2023-08-11T13:06:50.045Z,24.91
2023-08-11T13:09:52.134Z,24.95
2023-08-11T13:12:54.225Z,25.03
2023-08-11T13:15:56.928Z,25.02
2023-08-11T13:18:59.039Z,24.99
2023-08-11T13:22:05.607Z,25.01
2023-08-11T13:25:08.512Z,25.09
2023-08-11T13:28:10.641Z,25.15
2023-08-11T13:31:12.796Z,25.14
2023-08-11T13:34:14.915Z,25.18
2023-08-11T13:37:17.041Z,25.24
2023-08-11T13:40:20.107Z,25.27
2023-08-11T13:43:25.497Z,25.38
2023-08-11T13:46:27.734Z,25.44
2023-08-11T13:49:29.799Z,25.65
2023-08-11T13:52:31.962Z,25.88
2023-08-11T13:55:34.267Z,25.84
2023-08-11T13:58:37.170Z,25.80
2023-08-11T14:01:39.269Z,25.64
2023-08-11T14:04:41.401Z,25.60
2023-08-11T14:07:48.259Z,25.54
2023-08-11T14:10:50.510Z,25.51
2023-08-11T14:13:52.700Z,25.45
2023-08-11T14:16:54.836Z,25.43
2023-08-11T14:19:56.924Z,25.57
2023-08-11T14:22:58.993Z,25.64
2023-08-11T14:26:01.140Z,25.69
2023-08-11T14:29:06.527Z,25.74
2023-08-11T14:32:24.009Z,25.81
2023-08-11T14:35:27.342Z,25.96
2023-08-11T14:38:29.410Z,25.89
2023-08-11T14:41:31.534Z,26.49
2023-08-11T14:44:33.665Z,26.22
2023-08-11T14:47:35.826Z,26.03
2023-08-11T14:50:37.990Z,25.92
2023-08-11T14:53:40.108Z,25.94
2023-08-11T14:56:42.961Z,26.07
2023-08-11T14:59:46.021Z,26.07
2023-08-11T15:02:48.129Z,26.12
2023-08-11T15:05:50.395Z,26.26
2023-08-11T15:08:52.525Z,26.25
2023-08-11T15:11:54.627Z,26.28
2023-08-11T15:14:56.724Z,26.32
2023-08-11T15:17:58.891Z,26.40
2023-08-11T15:21:01.228Z,26.35
2023-08-11T15:24:03.689Z,26.28
2023-08-11T15:27:06.094Z,26.32
2023-08-11T15:30:08.690Z,26.17
2023-08-11T15:33:10.866Z,26.16
2023-08-11T15:36:13.062Z,26.18
2023-08-11T15:39:16.382Z,26.22
2023-08-11T15:42:18.674Z,26.33
2023-08-11T15:45:20.743Z,26.32
2023-08-11T15:48:22.820Z,26.24
2023-08-11T15:51:24.925Z,26.25
2023-08-11T15:54:27.012Z,26.28
2023-08-11T15:57:29.080Z,26.27
2023-08-11T16:00:31.885Z,26.30
2023-08-11T16:03:35.761Z,26.36
2023-08-11T16:06:38.002Z,26.35
2023-08-11T16:09:40.111Z,26.38
2023-08-11T16:12:42.175Z,26.38
2023-08-11T16:15:44.262Z,26.32
2023-08-11T16:18:46.888Z,26.16
2023-08-11T16:21:49.152Z,26.06
2023-08-11T16:24:51.488Z,26.09
2023-08-11T16:27:53.544Z,26.13
2023-08-11T16:30:55.722Z,26.16
2023-08-11T16:33:57.851Z,26.16
2023-08-11T16:36:59.900Z,26.17
2023-08-11T16:40:02.055Z,26.17
2023-08-11T16:43:04.726Z,26.16
2023-08-11T16:46:06.942Z,26.09
2023-08-11T16:49:09.224Z,26.02
2023-08-11T16:52:11.810Z,25.96
2023-08-11T16:55:14.127Z,25.91
2023-08-11T16:58:16.458Z,25.83
2023-08-11T17:01:19.615Z,25.81
2023-08-11T17:04:21.842Z,25.76
2023-08-11T17:07:24.065Z,25.78
2023-08-11T17:10:26.151Z,25.74
2023-08-11T17:13:28.324Z,25.67
2023-08-11T17:16:31.542Z,25.65
2023-08-11T17:19:33.908Z,25.60
2023-08-11T17:22:35.986Z,25.57
2023-08-11T17:25:38.080Z,25.52
2023-08-11T17:28:40.219Z,25.50
2023-08-11T17:31:42.699Z,25.48
2023-08-11T17:34:57.257Z,25.45
2023-08-11T17:38:00.426Z,25.43
2023-08-11T17:41:03.118Z,25.43
2023-08-11T17:44:05.520Z,25.40
2023-08-11T17:47:08.802Z,25.37
2023-08-11T17:50:11.418Z,25.33
2023-08-11T17:53:13.520Z,25.34
2023-08-11T17:56:15.651Z,25.30
2023-08-11T17:59:17.951Z,25.31
2023-08-11T18:02:20.114Z,25.29
2023-08-11T18:05:22.205Z,25.28
2023-08-11T18:08:24.273Z,25.25
2023-08-11T18:11:26.520Z,25.25
2023-08-11T18:14:31.759Z,25.23
2023-08-11T18:17:34.447Z,25.23
2023-08-11T18:20:36.565Z,25.20
2023-08-11T18:23:39.519Z,25.20
2023-08-11T18:26:41.608Z,25.18
2023-08-11T18:29:43.856Z,25.19
2023-08-11T18:32:46.388Z,25.15
2023-08-11T18:35:48.647Z,25.14
2023-08-11T18:38:51.252Z,25.12
2023-08-11T18:41:53.404Z,25.12
2023-08-11T18:44:55.571Z,25.10
2023-08-11T18:47:57.747Z,25.12
2023-08-11T18:50:59.914Z,25.14
2023-08-11T18:54:02.043Z,25.13
2023-08-11T18:57:04.277Z,25.13
2023-08-11T19:00:07.720Z,25.10
2023-08-11T19:03:09.864Z,25.09
2023-08-11T19:06:12.075Z,25.08
2023-08-11T19:09:14.157Z,25.08
2023-08-11T19:12:16.311Z,25.06
2023-08-11T19:15:19.160Z,25.05
2023-08-11T19:18:21.386Z,25.04
2023-08-11T19:21:23.482Z,25.02
2023-08-11T19:24:26.940Z,25.03
2023-08-11T19:27:29.110Z,25.00
2023-08-11T19:30:32.869Z,24.98
2023-08-11T19:33:36.190Z,24.99
2023-08-11T19:36:42.328Z,24.97
2023-08-11T19:39:44.479Z,24.94
2023-08-11T19:42:46.624Z,24.95
2023-08-11T19:45:54.262Z,24.93
2023-08-11T19:48:56.590Z,24.90
2023-08-11T19:51:58.783Z,24.89
2023-08-11T19:55:00.862Z,24.90
2023-08-11T19:58:02.962Z,24.87
2023-08-11T20:01:07.046Z,24.86
2023-08-11T20:04:09.186Z,24.84
2023-08-11T20:07:11.527Z,24.79
2023-08-11T20:10:14.097Z,24.78
2023-08-11T20:13:19.464Z,24.80
2023-08-11T20:16:21.607Z,24.79
2023-08-11T20:19:25.129Z,24.79
2023-08-11T20:22:27.283Z,24.79
2023-08-11T20:25:29.613Z,24.78
2023-08-11T20:28:31.831Z,24.76
2023-08-11T20:31:34.405Z,24.74
2023-08-11T20:34:36.665Z,24.73
2023-08-11T20:37:39.034Z,24.72
2023-08-11T20:40:41.194Z,24.72
2023-08-11T20:43:43.397Z,24.71
2023-08-11T20:46:45.502Z,24.69
2023-08-11T20:49:47.648Z,24.68
2023-08-11T20:52:50.009Z,24.66
2023-08-11T20:55:52.131Z,24.68
2023-08-11T20:58:54.302Z,24.68
2023-08-11T21:01:56.856Z,24.69
2023-08-11T21:04:58.948Z,24.68
2023-08-11T21:08:01.529Z,24.66
2023-08-11T21:11:03.599Z,24.66
2023-08-11T21:14:09.600Z,24.64
2023-08-11T21:17:11.715Z,24.63
2023-08-11T21:20:13.929Z,24.61
2023-08-11T21:23:20.305Z,24.60
2023-08-11T21:26:22.921Z,24.58
2023-08-11T21:29:24.997Z,24.57
2023-08-11T21:32:27.192Z,24.56
2023-08-11T21:35:29.298Z,24.56
2023-08-11T21:38:31.451Z,24.55
2023-08-11T21:41:34.632Z,24.54
2023-08-11T21:44:37.435Z,24.54
2023-08-11T21:47:41.791Z,24.51
2023-08-11T21:50:43.969Z,24.47
2023-08-11T21:53:46.108Z,24.33
2023-08-11T21:56:48.323Z,24.28
2023-08-11T21:59:50.436Z,24.23
2023-08-11T22:02:52.591Z,24.18
2023-08-11T22:05:54.826Z,24.18
2023-08-11T22:08:56.975Z,24.16
2023-08-11T22:11:59.121Z,24.12
2023-08-11T22:15:01.238Z,24.12
2023-08-11T22:18:03.532Z,24.09
2023-08-11T22:21:05.663Z,24.08
2023-08-11T22:24:07.960Z,24.09
2023-08-11T22:27:11.139Z,24.06
2023-08-11T22:30:14.406Z,24.03
2023-08-11T22:33:16.920Z,23.99
2023-08-11T22:36:19.081Z,23.99
2023-08-11T22:39:21.271Z,24.00
2023-08-11T22:42:28.225Z,23.97
2023-08-11T22:45:30.339Z,23.95
2023-08-11T22:48:32.478Z,23.94
2023-08-11T22:51:34.676Z,23.89
2023-08-11T22:54:36.990Z,23.89
2023-08-11T22:57:39.110Z,23.87
2023-08-11T23:00:41.433Z,23.89
2023-08-11T23:03:43.692Z,23.89
2023-08-11T23:06:45.819Z,23.94
2023-08-11T23:09:47.908Z,23.89
2023-08-11T23:12:49.982Z,23.87
2023-08-11T23:15:52.178Z,23.87
2023-08-11T23:18:54.285Z,23.95
2023-08-11T23:21:56.416Z,23.97
2023-08-11T23:24:59.226Z,23.94
2023-08-11T23:28:01.295Z,23.91
2023-08-11T23:31:03.395Z,23.91
2023-08-11T23:34:05.681Z,23.91
2023-08-11T23:37:07.794Z,23.92
2023-08-11T23:40:10.827Z,23.95
2023-08-11T23:43:13.633Z,23.98
2023-08-11T23:46:16.308Z,24.00
2023-08-11T23:49:18.501Z,24.02
2023-08-11T23:52:20.714Z,23.99
2023-08-11T23:55:25.688Z,24.03
2023-08-11T23:58:27.839Z,24.02
